sensor_id;sensor_type;location;lat;lon;timestamp;temperature;humidity
37530;DHT22;23374;52.758;6.872;2023-07-20T00:00:25;17.10;1.00
37530;DHT22;23374;52.758;6.872;2023-07-20T00:02:50;17.10;99.90
37530;DHT22;23374;52.758;6.872;2023-07-20T00:05:11;17.10;99.90
37530;DHT22;23374;52.758;6.872;2023-07-20T00:07:29;17.10;1.00
37530;DHT22;23374;52.758;6.872;2023-07-20T00:09:49;17.10;24.40
37530;DHT22;23374;52.758;6.872;2023-07-20T00:12:10;17.10;97.80
37530;DHT22;23374;52.758;6.872;2023-07-20T00:14:30;17.10;1.00
37530;DHT22;23374;52.758;6.872;2023-07-20T00:16:52;17.10;99.90
37530;DHT22;23374;52.758;6.872;2023-07-20T00:19:18;17.10;99.90
37530;DHT22;23374;52.758;6.872;2023-07-20T00:21:38;17.10;99.90
37530;DHT22;23374;52.758;6.872;2023-07-20T00:24:03;17.10;99.90
37530;DHT22;23374;52.758;6.872;2023-07-20T00:26:23;17.10;99.90
37530;DHT22;23374;52.758;6.872;2023-07-20T00:28:43;17.10;99.90
37530;DHT22;23374;52.758;6.872;2023-07-20T00:31:04;17.10;99.90
37530;DHT22;23374;52.758;6.872;2023-07-20T00:33:25;17.10;1.00
37530;DHT22;23374;52.758;6.872;2023-07-20T00:35:45;17.10;99.90
37530;DHT22;23374;52.758;6.872;2023-07-20T00:38:06;17.10;99.90
37530;DHT22;23374;52.758;6.872;2023-07-20T00:41:45;17.00;1.00
37530;DHT22;23374;52.758;6.872;2023-07-20T00:44:05;17.00;99.90
37530;DHT22;23374;52.758;6.872;2023-07-20T00:46:27;16.90;1.00
37530;DHT22;23374;52.758;6.872;2023-07-20T00:48:47;16.90;99.90
37530;DHT22;23374;52.758;6.872;2023-07-20T00:51:08;16.90;99.90
37530;DHT22;23374;52.758;6.872;2023-07-20T00:53:28;16.90;1.00
37530;DHT22;23374;52.758;6.872;2023-07-20T00:55:49;16.90;25.30
37530;DHT22;23374;52.758;6.872;2023-07-20T00:58:10;16.90;1.00
37530;DHT22;23374;52.758;6.872;2023-07-20T01:00:31;16.90;1.00
37530;DHT22;23374;52.758;6.872;2023-07-20T01:02:52;16.90;99.90
37530;DHT22;23374;52.758;6.872;2023-07-20T01:05:12;16.80;1.00
37530;DHT22;23374;52.758;6.872;2023-07-20T01:07:51;16.80;1.00
37530;DHT22;23374;52.758;6.872;2023-07-20T01:13:03;16.80;1.00
37530;DHT22;23374;52.758;6.872;2023-07-20T01:15:25;16.80;1.00
37530;DHT22;23374;52.758;6.872;2023-07-20T01:17:46;16.80;1.00
37530;DHT22;23374;52.758;6.872;2023-07-20T01:20:13;16.80;1.00
37530;DHT22;23374;52.758;6.872;2023-07-20T01:26:45;16.80;1.00
37530;DHT22;23374;52.758;6.872;2023-07-20T01:30:50;16.90;1.00
37530;DHT22;23374;52.758;6.872;2023-07-20T01:33:15;16.80;1.00
37530;DHT22;23374;52.758;6.872;2023-07-20T01:35:36;16.70;1.00
37530;DHT22;23374;52.758;6.872;2023-07-20T01:37:58;16.70;1.00
37530;DHT22;23374;52.758;6.872;2023-07-20T01:41:50;16.70;1.00
37530;DHT22;23374;52.758;6.872;2023-07-20T01:44:12;16.70;1.00
37530;DHT22;23374;52.758;6.872;2023-07-20T01:46:32;16.70;1.00
37530;DHT22;23374;52.758;6.872;2023-07-20T01:48:53;16.60;1.00
37530;DHT22;23374;52.758;6.872;2023-07-20T01:51:14;16.60;1.00
37530;DHT22;23374;52.758;6.872;2023-07-20T01:53:34;16.60;1.00
37530;DHT22;23374;52.758;6.872;2023-07-20T01:55:54;16.60;1.00
37530;DHT22;23374;52.758;6.872;2023-07-20T01:58:15;16.60;1.00
37530;DHT22;23374;52.758;6.872;2023-07-20T02:00:37;16.60;1.00
37530;DHT22;23374;52.758;6.872;2023-07-20T02:02:57;16.60;1.00
37530;DHT22;23374;52.758;6.872;2023-07-20T02:05:18;16.50;1.00
37530;DHT22;23374;52.758;6.872;2023-07-20T02:07:38;16.50;1.00
37530;DHT22;23374;52.758;6.872;2023-07-20T02:09:59;16.50;1.00
37530;DHT22;23374;52.758;6.872;2023-07-20T02:12:19;16.40;1.00
37530;DHT22;23374;52.758;6.872;2023-07-20T02:14:40;16.40;1.00
37530;DHT22;23374;52.758;6.872;2023-07-20T02:17:01;16.40;1.00
37530;DHT22;23374;52.758;6.872;2023-07-20T02:19:21;16.40;1.00
37530;DHT22;23374;52.758;6.872;2023-07-20T02:21:42;16.30;1.00
37530;DHT22;23374;52.758;6.872;2023-07-20T02:24:02;16.30;1.00
37530;DHT22;23374;52.758;6.872;2023-07-20T02:26:22;16.30;1.00
37530;DHT22;23374;52.758;6.872;2023-07-20T02:28:43;16.30;1.00
37530;DHT22;23374;52.758;6.872;2023-07-20T02:31:03;16.20;1.00
37530;DHT22;23374;52.758;6.872;2023-07-20T02:33:23;16.20;1.00
37530;DHT22;23374;52.758;6.872;2023-07-20T02:35:44;16.20;99.90
37530;DHT22;23374;52.758;6.872;2023-07-20T02:38:04;16.20;1.00
37530;DHT22;23374;52.758;6.872;2023-07-20T02:41:55;16.10;99.90
37530;DHT22;23374;52.758;6.872;2023-07-20T02:44:16;16.00;99.90
37530;DHT22;23374;52.758;6.872;2023-07-20T02:46:36;16.00;1.40
37530;DHT22;23374;52.758;6.872;2023-07-20T02:48:57;16.00;99.90
37530;DHT22;23374;52.758;6.872;2023-07-20T02:51:17;15.90;46.90
37530;DHT22;23374;52.758;6.872;2023-07-20T02:53:37;15.90;90.90
37530;DHT22;23374;52.758;6.872;2023-07-20T02:55:58;15.90;99.90
37530;DHT22;23374;52.758;6.872;2023-07-20T02:58:18;15.80;99.90
37530;DHT22;23374;52.758;6.872;2023-07-20T03:00:39;15.80;1.00
37530;DHT22;23374;52.758;6.872;2023-07-20T03:02:59;15.70;1.00
37530;DHT22;23374;52.758;6.872;2023-07-20T03:05:20;15.70;1.00
37530;DHT22;23374;52.758;6.872;2023-07-20T03:07:40;15.70;1.00
37530;DHT22;23374;52.758;6.872;2023-07-20T03:10:01;15.70;1.00
37530;DHT22;23374;52.758;6.872;2023-07-20T03:12:23;15.60;1.00
37530;DHT22;23374;52.758;6.872;2023-07-20T03:14:44;15.60;1.00
37530;DHT22;23374;52.758;6.872;2023-07-20T03:17:05;15.60;1.00
37530;DHT22;23374;52.758;6.872;2023-07-20T03:19:26;15.50;1.00
37530;DHT22;23374;52.758;6.872;2023-07-20T03:21:46;15.50;1.00
37530;DHT22;23374;52.758;6.872;2023-07-20T03:24:08;15.50;1.00
37530;DHT22;23374;52.758;6.872;2023-07-20T03:26:28;15.40;1.00
37530;DHT22;23374;52.758;6.872;2023-07-20T03:28:49;15.40;1.00
37530;DHT22;23374;52.758;6.872;2023-07-20T03:31:09;15.40;1.00
37530;DHT22;23374;52.758;6.872;2023-07-20T03:33:30;15.40;1.00
37530;DHT22;23374;52.758;6.872;2023-07-20T03:35:51;15.30;1.00
37530;DHT22;23374;52.758;6.872;2023-07-20T03:38:11;15.30;1.00
37530;DHT22;23374;52.758;6.872;2023-07-20T03:40:32;15.30;1.00
37530;DHT22;23374;52.758;6.872;2023-07-20T03:42:52;15.20;1.00
37530;DHT22;23374;52.758;6.872;2023-07-20T03:45:12;15.20;1.00
37530;DHT22;23374;52.758;6.872;2023-07-20T03:47:33;15.20;1.00
37530;DHT22;23374;52.758;6.872;2023-07-20T03:49:53;15.20;1.00
37530;DHT22;23374;52.758;6.872;2023-07-20T03:52:14;15.10;1.00
37530;DHT22;23374;52.758;6.872;2023-07-20T03:54:34;15.10;1.00
37530;DHT22;23374;52.758;6.872;2023-07-20T03:56:54;15.10;1.00
37530;DHT22;23374;52.758;6.872;2023-07-20T03:59:14;15.10;1.00
37530;DHT22;23374;52.758;6.872;2023-07-20T04:01:34;15.10;1.00
37530;DHT22;23374;52.758;6.872;2023-07-20T04:03:56;15.00;1.00
37530;DHT22;23374;52.758;6.872;2023-07-20T04:06:17;15.00;1.00
37530;DHT22;23374;52.758;6.872;2023-07-20T04:08:38;15.00;1.00
37530;DHT22;23374;52.758;6.872;2023-07-20T04:11:02;15.00;1.00
37530;DHT22;23374;52.758;6.872;2023-07-20T04:13:22;15.00;1.00
37530;DHT22;23374;52.758;6.872;2023-07-20T04:15:43;14.90;1.00
37530;DHT22;23374;52.758;6.872;2023-07-20T04:18:03;14.90;1.00
37530;DHT22;23374;52.758;6.872;2023-07-20T04:20:24;14.90;1.00
37530;DHT22;23374;52.758;6.872;2023-07-20T04:22:44;14.90;1.00
37530;DHT22;23374;52.758;6.872;2023-07-20T04:25:05;14.90;1.00
37530;DHT22;23374;52.758;6.872;2023-07-20T04:27:25;14.90;1.00
37530;DHT22;23374;52.758;6.872;2023-07-20T04:29:46;14.90;1.00
37530;DHT22;23374;52.758;6.872;2023-07-20T04:32:07;14.90;1.00
37530;DHT22;23374;52.758;6.872;2023-07-20T04:34:28;14.90;1.00
37530;DHT22;23374;52.758;6.872;2023-07-20T04:36:48;14.90;1.00
37530;DHT22;23374;52.758;6.872;2023-07-20T04:39:10;14.90;1.00
37530;DHT22;23374;52.758;6.872;2023-07-20T04:41:31;14.90;1.00
37530;DHT22;23374;52.758;6.872;2023-07-20T04:43:51;14.90;1.00
37530;DHT22;23374;52.758;6.872;2023-07-20T04:46:11;14.90;1.00
37530;DHT22;23374;52.758;6.872;2023-07-20T04:48:32;14.90;1.00
37530;DHT22;23374;52.758;6.872;2023-07-20T04:50:52;14.90;1.00
37530;DHT22;23374;52.758;6.872;2023-07-20T04:53:13;14.90;1.00
37530;DHT22;23374;52.758;6.872;2023-07-20T04:55:33;14.90;1.00
37530;DHT22;23374;52.758;6.872;2023-07-20T04:57:54;14.90;1.00
37530;DHT22;23374;52.758;6.872;2023-07-20T05:00:15;15.00;1.00
37530;DHT22;23374;52.758;6.872;2023-07-20T05:02:36;15.10;1.00
37530;DHT22;23374;52.758;6.872;2023-07-20T05:04:57;15.30;25.20
37530;DHT22;23374;52.758;6.872;2023-07-20T05:07:17;15.70;1.00
37530;DHT22;23374;52.758;6.872;2023-07-20T05:09:37;16.10;1.00
37530;DHT22;23374;52.758;6.872;2023-07-20T05:11:57;16.40;99.90
37530;DHT22;23374;52.758;6.872;2023-07-20T05:14:18;16.80;99.90
37530;DHT22;23374;52.758;6.872;2023-07-20T05:16:38;17.20;1.00
37530;DHT22;23374;52.758;6.872;2023-07-20T05:18:58;17.40;99.90
37530;DHT22;23374;52.758;6.872;2023-07-20T05:21:18;17.70;99.90
37530;DHT22;23374;52.758;6.872;2023-07-20T05:23:39;18.00;1.00
37530;DHT22;23374;52.758;6.872;2023-07-20T05:25:59;18.20;1.00
37530;DHT22;23374;52.758;6.872;2023-07-20T05:28:20;18.40;1.00
37530;DHT22;23374;52.758;6.872;2023-07-20T05:30:40;18.60;99.90
37530;DHT22;23374;52.758;6.872;2023-07-20T05:33:01;18.90;1.00
37530;DHT22;23374;52.758;6.872;2023-07-20T05:35:21;19.10;99.90
37530;DHT22;23374;52.758;6.872;2023-07-20T05:37:42;19.40;99.90
37530;DHT22;23374;52.758;6.872;2023-07-20T05:40:05;19.60;1.00
37530;DHT22;23374;52.758;6.872;2023-07-20T05:42:26;19.70;1.00
37530;DHT22;23374;52.758;6.872;2023-07-20T05:44:46;19.90;1.00
37530;DHT22;23374;52.758;6.872;2023-07-20T05:47:13;20.00;1.00
37530;DHT22;23374;52.758;6.872;2023-07-20T05:49:35;20.10;1.00
37530;DHT22;23374;52.758;6.872;2023-07-20T05:51:56;20.30;99.90
37530;DHT22;23374;52.758;6.872;2023-07-20T05:54:17;20.40;1.00
37530;DHT22;23374;52.758;6.872;2023-07-20T05:56:38;20.50;99.90
37530;DHT22;23374;52.758;6.872;2023-07-20T05:58:58;20.60;1.00
37530;DHT22;23374;52.758;6.872;2023-07-20T06:01:18;20.70;1.00
37530;DHT22;23374;52.758;6.872;2023-07-20T06:03:39;20.70;99.90
37530;DHT22;23374;52.758;6.872;2023-07-20T06:06:03;20.80;99.90
37530;DHT22;23374;52.758;6.872;2023-07-20T06:08:29;20.90;1.00
37530;DHT22;23374;52.758;6.872;2023-07-20T06:10:52;21.00;94.20
37530;DHT22;23374;52.758;6.872;2023-07-20T06:13:12;21.10;1.00
37530;DHT22;23374;52.758;6.872;2023-07-20T06:15:33;21.10;36.80
37530;DHT22;23374;52.758;6.872;2023-07-20T06:17:55;21.20;29.60
37530;DHT22;23374;52.758;6.872;2023-07-20T06:20:18;21.10;1.00
37530;DHT22;23374;52.758;6.872;2023-07-20T06:22:38;20.90;1.00
37530;DHT22;23374;52.758;6.872;2023-07-20T06:24:58;20.70;1.00
37530;DHT22;23374;52.758;6.872;2023-07-20T06:27:19;20.50;1.00
37530;DHT22;23374;52.758;6.872;2023-07-20T06:29:39;20.20;99.90
37530;DHT22;23374;52.758;6.872;2023-07-20T06:32:00;19.90;1.00
37530;DHT22;23374;52.758;6.872;2023-07-20T06:34:20;19.60;1.00
37530;DHT22;23374;52.758;6.872;2023-07-20T06:36:41;19.40;1.00
37530;DHT22;23374;52.758;6.872;2023-07-20T06:39:02;19.10;1.00
37530;DHT22;23374;52.758;6.872;2023-07-20T06:41:23;18.90;26.70
37530;DHT22;23374;52.758;6.872;2023-07-20T06:43:43;18.70;99.90
37530;DHT22;23374;52.758;6.872;2023-07-20T06:46:04;18.50;1.00
37530;DHT22;23374;52.758;6.872;2023-07-20T06:48:25;18.40;99.90
37530;DHT22;23374;52.758;6.872;2023-07-20T06:50:46;18.20;99.90
37530;DHT22;23374;52.758;6.872;2023-07-20T06:53:06;18.10;99.90
37530;DHT22;23374;52.758;6.872;2023-07-20T06:55:27;18.10;99.90
37530;DHT22;23374;52.758;6.872;2023-07-20T06:57:47;18.00;99.90
37530;DHT22;23374;52.758;6.872;2023-07-20T07:00:09;18.00;99.90
37530;DHT22;23374;52.758;6.872;2023-07-20T07:02:30;18.00;99.90
37530;DHT22;23374;52.758;6.872;2023-07-20T07:04:50;17.90;99.90
37530;DHT22;23374;52.758;6.872;2023-07-20T07:07:11;17.90;99.90
37530;DHT22;23374;52.758;6.872;2023-07-20T07:09:31;17.90;99.90
37530;DHT22;23374;52.758;6.872;2023-07-20T07:11:52;17.90;99.90
37530;DHT22;23374;52.758;6.872;2023-07-20T07:14:13;17.90;1.00
37530;DHT22;23374;52.758;6.872;2023-07-20T07:16:33;17.90;51.20
37530;DHT22;23374;52.758;6.872;2023-07-20T07:18:54;17.90;99.90
37530;DHT22;23374;52.758;6.872;2023-07-20T07:21:14;18.00;16.10
37530;DHT22;23374;52.758;6.872;2023-07-20T07:23:34;17.90;99.90
37530;DHT22;23374;52.758;6.872;2023-07-20T07:25:55;17.90;99.90
37530;DHT22;23374;52.758;6.872;2023-07-20T07:28:15;17.90;71.80
37530;DHT22;23374;52.758;6.872;2023-07-20T07:30:36;17.90;99.90
37530;DHT22;23374;52.758;6.872;2023-07-20T07:32:57;17.80;1.00
37530;DHT22;23374;52.758;6.872;2023-07-20T07:35:17;17.80;1.00
37530;DHT22;23374;52.758;6.872;2023-07-20T07:37:37;17.90;1.00
37530;DHT22;23374;52.758;6.872;2023-07-20T07:39:58;18.00;1.00
37530;DHT22;23374;52.758;6.872;2023-07-20T07:42:19;18.10;1.00
37530;DHT22;23374;52.758;6.872;2023-07-20T07:44:39;18.10;1.00
37530;DHT22;23374;52.758;6.872;2023-07-20T07:47:00;18.10;99.90
37530;DHT22;23374;52.758;6.872;2023-07-20T07:49:20;18.10;1.00
37530;DHT22;23374;52.758;6.872;2023-07-20T07:51:41;18.20;1.00
37530;DHT22;23374;52.758;6.872;2023-07-20T07:54:01;18.20;1.00
37530;DHT22;23374;52.758;6.872;2023-07-20T07:56:21;18.10;1.00
37530;DHT22;23374;52.758;6.872;2023-07-20T07:58:43;18.10;1.00
37530;DHT22;23374;52.758;6.872;2023-07-20T08:01:04;18.20;1.00
37530;DHT22;23374;52.758;6.872;2023-07-20T08:03:25;18.30;1.00
37530;DHT22;23374;52.758;6.872;2023-07-20T08:05:46;18.40;1.00
37530;DHT22;23374;52.758;6.872;2023-07-20T08:08:06;18.50;1.00
37530;DHT22;23374;52.758;6.872;2023-07-20T08:10:29;18.60;99.90
37530;DHT22;23374;52.758;6.872;2023-07-20T08:12:49;18.80;99.90
37530;DHT22;23374;52.758;6.872;2023-07-20T08:15:13;18.80;99.90
37530;DHT22;23374;52.758;6.872;2023-07-20T08:17:34;18.80;1.00
37530;DHT22;23374;52.758;6.872;2023-07-20T08:19:54;18.90;1.00
37530;DHT22;23374;52.758;6.872;2023-07-20T08:22:15;19.00;1.00
37530;DHT22;23374;52.758;6.872;2023-07-20T08:24:40;19.00;1.00
37530;DHT22;23374;52.758;6.872;2023-07-20T08:27:01;19.00;1.00
37530;DHT22;23374;52.758;6.872;2023-07-20T08:29:21;19.10;1.00
37530;DHT22;23374;52.758;6.872;2023-07-20T08:31:42;19.10;1.00
37530;DHT22;23374;52.758;6.872;2023-07-20T08:34:02;19.20;99.90
37530;DHT22;23374;52.758;6.872;2023-07-20T08:36:23;19.20;1.00
37530;DHT22;23374;52.758;6.872;2023-07-20T08:38:44;19.40;1.00
37530;DHT22;23374;52.758;6.872;2023-07-20T08:41:04;19.40;1.00
37530;DHT22;23374;52.758;6.872;2023-07-20T08:43:25;19.50;1.00
37530;DHT22;23374;52.758;6.872;2023-07-20T08:45:46;19.40;1.00
37530;DHT22;23374;52.758;6.872;2023-07-20T08:48:08;19.30;1.00
37530;DHT22;23374;52.758;6.872;2023-07-20T08:50:31;19.30;1.00
37530;DHT22;23374;52.758;6.872;2023-07-20T08:52:52;19.20;25.10
37530;DHT22;23374;52.758;6.872;2023-07-20T08:55:13;19.30;1.00
37530;DHT22;23374;52.758;6.872;2023-07-20T08:57:36;19.40;1.00
37530;DHT22;23374;52.758;6.872;2023-07-20T08:59:57;19.50;1.00
37530;DHT22;23374;52.758;6.872;2023-07-20T09:02:19;19.50;1.00
37530;DHT22;23374;52.758;6.872;2023-07-20T09:04:42;19.70;1.00
37530;DHT22;23374;52.758;6.872;2023-07-20T09:07:03;19.70;99.90
37530;DHT22;23374;52.758;6.872;2023-07-20T09:09:29;19.70;99.90
37530;DHT22;23374;52.758;6.872;2023-07-20T09:11:50;19.80;99.90
37530;DHT22;23374;52.758;6.872;2023-07-20T09:14:10;19.90;99.90
37530;DHT22;23374;52.758;6.872;2023-07-20T09:16:30;20.00;1.00
37530;DHT22;23374;52.758;6.872;2023-07-20T09:18:51;20.10;99.90
37530;DHT22;23374;52.758;6.872;2023-07-20T09:21:11;20.20;86.50
37530;DHT22;23374;52.758;6.872;2023-07-20T09:23:36;20.20;1.00
37530;DHT22;23374;52.758;6.872;2023-07-20T09:25:58;20.30;98.80
37530;DHT22;23374;52.758;6.872;2023-07-20T09:28:18;20.30;34.70
37530;DHT22;23374;52.758;6.872;2023-07-20T09:30:39;20.20;55.20
37530;DHT22;23374;52.758;6.872;2023-07-20T09:33:00;20.20;99.90
37530;DHT22;23374;52.758;6.872;2023-07-20T09:35:22;20.30;99.90
37530;DHT22;23374;52.758;6.872;2023-07-20T09:37:59;20.30;1.00
37530;DHT22;23374;52.758;6.872;2023-07-20T09:40:20;20.30;1.00
37530;DHT22;23374;52.758;6.872;2023-07-20T09:42:41;20.30;81.80
37530;DHT22;23374;52.758;6.872;2023-07-20T09:45:02;20.30;99.90
37530;DHT22;23374;52.758;6.872;2023-07-20T09:47:23;20.30;99.80
37530;DHT22;23374;52.758;6.872;2023-07-20T09:49:44;20.40;50.10
37530;DHT22;23374;52.758;6.872;2023-07-20T09:52:04;20.30;99.90
37530;DHT22;23374;52.758;6.872;2023-07-20T09:54:27;20.40;99.90
37530;DHT22;23374;52.758;6.872;2023-07-20T09:56:49;20.50;37.90
37530;DHT22;23374;52.758;6.872;2023-07-20T09:59:10;20.60;1.00
37530;DHT22;23374;52.758;6.872;2023-07-20T10:01:33;20.70;1.00
37530;DHT22;23374;52.758;6.872;2023-07-20T10:03:54;20.80;1.00
37530;DHT22;23374;52.758;6.872;2023-07-20T10:06:24;21.00;1.00
37530;DHT22;23374;52.758;6.872;2023-07-20T10:08:47;21.00;1.00
37530;DHT22;23374;52.758;6.872;2023-07-20T10:11:08;21.00;1.00
37530;DHT22;23374;52.758;6.872;2023-07-20T10:13:30;21.00;1.00
37530;DHT22;23374;52.758;6.872;2023-07-20T10:16:09;21.00;1.00
37530;DHT22;23374;52.758;6.872;2023-07-20T10:19:07;20.90;1.00
37530;DHT22;23374;52.758;6.872;2023-07-20T10:21:37;20.90;1.00
37530;DHT22;23374;52.758;6.872;2023-07-20T10:24:01;20.80;1.00
37530;DHT22;23374;52.758;6.872;2023-07-20T10:26:22;20.90;1.00
37530;DHT22;23374;52.758;6.872;2023-07-20T10:28:42;20.90;1.00
37530;DHT22;23374;52.758;6.872;2023-07-20T10:31:03;20.90;1.00
37530;DHT22;23374;52.758;6.872;2023-07-20T10:33:24;20.80;1.00
37530;DHT22;23374;52.758;6.872;2023-07-20T10:36:25;20.80;1.00
37530;DHT22;23374;52.758;6.872;2023-07-20T10:38:57;20.70;1.00
37530;DHT22;23374;52.758;6.872;2023-07-20T10:41:39;20.70;1.00
37530;DHT22;23374;52.758;6.872;2023-07-20T10:44:03;20.70;1.00
37530;DHT22;23374;52.758;6.872;2023-07-20T10:48:34;20.80;1.00
37530;DHT22;23374;52.758;6.872;2023-07-20T10:51:20;20.80;1.00
37530;DHT22;23374;52.758;6.872;2023-07-20T10:53:41;20.80;1.00
37530;DHT22;23374;52.758;6.872;2023-07-20T10:56:13;20.60;99.90
37530;DHT22;23374;52.758;6.872;2023-07-20T10:58:34;20.60;99.90
37530;DHT22;23374;52.758;6.872;2023-07-20T11:01:01;20.40;99.90
37530;DHT22;23374;52.758;6.872;2023-07-20T11:03:30;20.30;1.00
37530;DHT22;23374;52.758;6.872;2023-07-20T11:05:50;20.10;99.90
37530;DHT22;23374;52.758;6.872;2023-07-20T11:08:12;19.90;1.00
37530;DHT22;23374;52.758;6.872;2023-07-20T11:10:33;19.80;1.00
37530;DHT22;23374;52.758;6.872;2023-07-20T11:14:04;19.80;1.00
37530;DHT22;23374;52.758;6.872;2023-07-20T11:16:48;19.80;1.00
37530;DHT22;23374;52.758;6.872;2023-07-20T11:19:21;19.90;1.00
37530;DHT22;23374;52.758;6.872;2023-07-20T11:21:46;19.80;1.00
37530;DHT22;23374;52.758;6.872;2023-07-20T11:24:07;19.70;1.00
37530;DHT22;23374;52.758;6.872;2023-07-20T11:26:29;19.70;1.00
37530;DHT22;23374;52.758;6.872;2023-07-20T11:28:50;19.70;1.00
37530;DHT22;23374;52.758;6.872;2023-07-20T11:31:14;19.60;1.00
37530;DHT22;23374;52.758;6.872;2023-07-20T11:33:36;19.50;1.00
37530;DHT22;23374;52.758;6.872;2023-07-20T11:35:58;19.50;1.00
37530;DHT22;23374;52.758;6.872;2023-07-20T11:38:18;19.60;1.00
37530;DHT22;23374;52.758;6.872;2023-07-20T11:40:46;19.70;1.00
37530;DHT22;23374;52.758;6.872;2023-07-20T11:43:07;19.70;99.90
37530;DHT22;23374;52.758;6.872;2023-07-20T11:45:28;19.70;99.90
37530;DHT22;23374;52.758;6.872;2023-07-20T11:47:53;19.80;99.90
37530;DHT22;23374;52.758;6.872;2023-07-20T11:50:13;19.90;99.90
37530;DHT22;23374;52.758;6.872;2023-07-20T11:52:36;19.90;99.90
37530;DHT22;23374;52.758;6.872;2023-07-20T11:54:57;19.90;99.90
37530;DHT22;23374;52.758;6.872;2023-07-20T11:57:19;19.90;99.90
37530;DHT22;23374;52.758;6.872;2023-07-20T11:59:58;20.00;99.90
37530;DHT22;23374;52.758;6.872;2023-07-20T12:02:24;20.10;99.90
37530;DHT22;23374;52.758;6.872;2023-07-20T12:04:48;20.30;99.90
37530;DHT22;23374;52.758;6.872;2023-07-20T12:07:09;20.40;99.90
37530;DHT22;23374;52.758;6.872;2023-07-20T12:09:29;20.40;99.90
37530;DHT22;23374;52.758;6.872;2023-07-20T12:11:50;20.40;99.90
37530;DHT22;23374;52.758;6.872;2023-07-20T12:14:11;20.40;99.90
37530;DHT22;23374;52.758;6.872;2023-07-20T12:16:31;20.40;99.90
37530;DHT22;23374;52.758;6.872;2023-07-20T12:19:03;20.40;99.90
37530;DHT22;23374;52.758;6.872;2023-07-20T12:21:23;20.40;99.90
37530;DHT22;23374;52.758;6.872;2023-07-20T12:23:45;20.40;99.90
37530;DHT22;23374;52.758;6.872;2023-07-20T12:26:10;20.40;99.90
37530;DHT22;23374;52.758;6.872;2023-07-20T12:28:31;20.50;99.90
37530;DHT22;23374;52.758;6.872;2023-07-20T12:30:52;20.70;37.60
37530;DHT22;23374;52.758;6.872;2023-07-20T12:33:16;20.90;90.30
37530;DHT22;23374;52.758;6.872;2023-07-20T12:35:37;21.00;1.00
37530;DHT22;23374;52.758;6.872;2023-07-20T12:37:58;21.00;1.00
37530;DHT22;23374;52.758;6.872;2023-07-20T12:40:19;21.00;1.00
37530;DHT22;23374;52.758;6.872;2023-07-20T12:42:39;21.00;1.00
37530;DHT22;23374;52.758;6.872;2023-07-20T12:45:00;21.10;1.00
37530;DHT22;23374;52.758;6.872;2023-07-20T12:47:20;21.20;1.00
37530;DHT22;23374;52.758;6.872;2023-07-20T12:49:41;21.20;1.00
37530;DHT22;23374;52.758;6.872;2023-07-20T12:52:07;21.30;1.00
37530;DHT22;23374;52.758;6.872;2023-07-20T12:54:28;21.40;1.00
37530;DHT22;23374;52.758;6.872;2023-07-20T12:56:48;21.60;1.00
37530;DHT22;23374;52.758;6.872;2023-07-20T12:59:09;21.70;1.00
37530;DHT22;23374;52.758;6.872;2023-07-20T13:01:29;21.80;1.00
37530;DHT22;23374;52.758;6.872;2023-07-20T13:03:50;21.80;1.00
37530;DHT22;23374;52.758;6.872;2023-07-20T13:06:11;21.80;1.00
37530;DHT22;23374;52.758;6.872;2023-07-20T13:08:31;21.90;1.00
37530;DHT22;23374;52.758;6.872;2023-07-20T13:10:51;22.00;1.00
37530;DHT22;23374;52.758;6.872;2023-07-20T13:13:12;22.20;1.00
37530;DHT22;23374;52.758;6.872;2023-07-20T13:15:40;22.30;1.00
37530;DHT22;23374;52.758;6.872;2023-07-20T13:18:01;22.30;1.00
37530;DHT22;23374;52.758;6.872;2023-07-20T13:20:21;22.40;1.00
37530;DHT22;23374;52.758;6.872;2023-07-20T13:22:42;22.40;1.00
37530;DHT22;23374;52.758;6.872;2023-07-20T13:25:03;22.40;1.00
37530;DHT22;23374;52.758;6.872;2023-07-20T13:27:23;22.30;1.00
37530;DHT22;23374;52.758;6.872;2023-07-20T13:29:46;22.30;1.00
37530;DHT22;23374;52.758;6.872;2023-07-20T13:32:08;22.30;1.00
37530;DHT22;23374;52.758;6.872;2023-07-20T13:34:29;22.30;1.00
37530;DHT22;23374;52.758;6.872;2023-07-20T13:36:49;22.20;1.00
37530;DHT22;23374;52.758;6.872;2023-07-20T13:39:10;22.10;1.00
37530;DHT22;23374;52.758;6.872;2023-07-20T13:41:31;22.00;1.00
37530;DHT22;23374;52.758;6.872;2023-07-20T13:43:52;21.90;1.00
37530;DHT22;23374;52.758;6.872;2023-07-20T13:46:12;21.80;1.00
37530;DHT22;23374;52.758;6.872;2023-07-20T13:48:33;21.80;1.00
37530;DHT22;23374;52.758;6.872;2023-07-20T13:50:53;21.70;1.00
37530;DHT22;23374;52.758;6.872;2023-07-20T13:53:14;21.60;1.00
37530;DHT22;23374;52.758;6.872;2023-07-20T13:55:36;21.60;1.00
37530;DHT22;23374;52.758;6.872;2023-07-20T13:57:57;21.60;1.00
37530;DHT22;23374;52.758;6.872;2023-07-20T14:00:17;21.60;1.00
37530;DHT22;23374;52.758;6.872;2023-07-20T14:02:38;21.70;1.00
37530;DHT22;23374;52.758;6.872;2023-07-20T14:04:58;21.90;1.00
37530;DHT22;23374;52.758;6.872;2023-07-20T14:07:18;22.00;1.00
37530;DHT22;23374;52.758;6.872;2023-07-20T14:09:38;22.20;1.00
37530;DHT22;23374;52.758;6.872;2023-07-20T14:11:59;22.30;1.00
37530;DHT22;23374;52.758;6.872;2023-07-20T14:14:19;22.20;1.00
37530;DHT22;23374;52.758;6.872;2023-07-20T14:16:40;22.20;1.00
37530;DHT22;23374;52.758;6.872;2023-07-20T14:19:00;22.10;1.00
37530;DHT22;23374;52.758;6.872;2023-07-20T14:21:21;22.00;1.00
37530;DHT22;23374;52.758;6.872;2023-07-20T14:23:42;21.80;1.00
37530;DHT22;23374;52.758;6.872;2023-07-20T14:26:02;21.60;1.00
37530;DHT22;23374;52.758;6.872;2023-07-20T14:28:25;21.50;1.00
37530;DHT22;23374;52.758;6.872;2023-07-20T14:30:46;21.50;1.00
37530;DHT22;23374;52.758;6.872;2023-07-20T14:33:07;21.60;1.00
37530;DHT22;23374;52.758;6.872;2023-07-20T14:35:27;21.60;1.00
37530;DHT22;23374;52.758;6.872;2023-07-20T14:37:47;21.60;1.00
37530;DHT22;23374;52.758;6.872;2023-07-20T14:40:09;21.60;1.00
37530;DHT22;23374;52.758;6.872;2023-07-20T14:42:30;21.60;1.00
37530;DHT22;23374;52.758;6.872;2023-07-20T14:44:52;21.70;1.00
37530;DHT22;23374;52.758;6.872;2023-07-20T14:47:12;21.80;1.00
37530;DHT22;23374;52.758;6.872;2023-07-20T14:49:32;22.00;1.00
37530;DHT22;23374;52.758;6.872;2023-07-20T14:51:52;22.20;1.00
37530;DHT22;23374;52.758;6.872;2023-07-20T14:54:13;22.30;1.00
37530;DHT22;23374;52.758;6.872;2023-07-20T14:56:34;22.40;1.00
37530;DHT22;23374;52.758;6.872;2023-07-20T14:58:54;22.50;1.00
37530;DHT22;23374;52.758;6.872;2023-07-20T15:01:15;22.60;1.00
37530;DHT22;23374;52.758;6.872;2023-07-20T15:03:35;22.60;1.00
37530;DHT22;23374;52.758;6.872;2023-07-20T15:05:55;22.60;1.00
37530;DHT22;23374;52.758;6.872;2023-07-20T15:08:17;22.60;1.00
37530;DHT22;23374;52.758;6.872;2023-07-20T15:10:39;22.70;1.00
37530;DHT22;23374;52.758;6.872;2023-07-20T15:12:59;22.80;1.00
37530;DHT22;23374;52.758;6.872;2023-07-20T15:15:20;22.90;1.00
37530;DHT22;23374;52.758;6.872;2023-07-20T15:17:43;23.00;1.00
37530;DHT22;23374;52.758;6.872;2023-07-20T15:20:07;23.10;1.00
37530;DHT22;23374;52.758;6.872;2023-07-20T15:22:28;23.10;1.00